sensor_id;sensor_type;location;lat;lon;timestamp;P1;durP1;ratioP1;P2;durP2;ratioP2
76854;SDS011;66343;44.588;33.450;2023-04-26T00:01:02;4.78;;;1.65;;
76854;SDS011;66343;44.588;33.450;2023-04-26T00:03:34;7.65;;;2.20;;
76854;SDS011;66343;44.588;33.450;2023-04-26T00:06:04;6.40;;;2.17;;
76854;SDS011;66343;44.588;33.450;2023-04-26T00:08:38;5.18;;;1.85;;
76854;SDS011;66343;44.588;33.450;2023-04-26T00:11:10;7.00;;;2.17;;
76854;SDS011;66343;44.588;33.450;2023-04-26T00:13:39;7.13;;;3.05;;
76854;SDS011;66343;44.588;33.450;2023-04-26T00:16:09;6.93;;;2.88;;
76854;SDS011;66343;44.588;33.450;2023-04-26T00:26:30;6.57;;;2.38;;
76854;SDS011;66343;44.588;33.450;2023-04-26T00:29:05;8.82;;;2.88;;
76854;SDS011;66343;44.588;33.450;2023-04-26T00:31:36;9.05;;;2.40;;
76854;SDS011;66343;44.588;33.450;2023-04-26T00:34:06;6.00;;;2.50;;
76854;SDS011;66343;44.588;33.450;2023-04-26T00:36:38;7.10;;;2.45;;
76854;SDS011;66343;44.588;33.450;2023-04-26T00:39:09;7.60;;;2.55;;
76854;SDS011;66343;44.588;33.450;2023-04-26T00:41:39;6.28;;;2.47;;
76854;SDS011;66343;44.588;33.450;2023-04-26T00:44:14;8.75;;;2.88;;
76854;SDS011;66343;44.588;33.450;2023-04-26T00:46:44;5.88;;;2.28;;
76854;SDS011;66343;44.588;33.450;2023-04-26T00:49:17;7.25;;;2.38;;
76854;SDS011;66343;44.588;33.450;2023-04-26T00:51:52;8.32;;;2.67;;
76854;SDS011;66343;44.588;33.450;2023-04-26T00:54:24;6.53;;;2.33;;
76854;SDS011;66343;44.588;33.450;2023-04-26T00:56:57;6.13;;;2.22;;
76854;SDS011;66343;44.588;33.450;2023-04-26T00:59:28;6.47;;;2.17;;
76854;SDS011;66343;44.588;33.450;2023-04-26T01:01:58;6.50;;;2.15;;
76854;SDS011;66343;44.588;33.450;2023-04-26T01:04:28;6.57;;;2.00;;
76854;SDS011;66343;44.588;33.450;2023-04-26T01:06:59;9.48;;;2.45;;
76854;SDS011;66343;44.588;33.450;2023-04-26T01:09:34;6.72;;;2.28;;
76854;SDS011;66343;44.588;33.450;2023-04-26T01:12:04;6.88;;;2.25;;
76854;SDS011;66343;44.588;33.450;2023-04-26T01:14:35;7.47;;;2.08;;
76854;SDS011;66343;44.588;33.450;2023-04-26T01:17:09;6.93;;;2.22;;
76854;SDS011;66343;44.588;33.450;2023-04-26T01:19:47;6.72;;;2.28;;
76854;SDS011;66343;44.588;33.450;2023-04-26T01:26:14;5.72;;;1.90;;
76854;SDS011;66343;44.588;33.450;2023-04-26T01:28:44;6.50;;;2.03;;
76854;SDS011;66343;44.588;33.450;2023-04-26T01:31:14;5.93;;;2.00;;
76854;SDS011;66343;44.588;33.450;2023-04-26T01:33:44;7.00;;;2.03;;
76854;SDS011;66343;44.588;33.450;2023-04-26T01:36:16;7.78;;;3.03;;
76854;SDS011;66343;44.588;33.450;2023-04-26T01:38:46;5.88;;;2.20;;
76854;SDS011;66343;44.588;33.450;2023-04-26T01:41:22;5.53;;;2.10;;
76854;SDS011;66343;44.588;33.450;2023-04-26T01:43:56;7.55;;;2.40;;
76854;SDS011;66343;44.588;33.450;2023-04-26T01:46:29;5.63;;;2.03;;
76854;SDS011;66343;44.588;33.450;2023-04-26T01:48:59;6.88;;;2.38;;
76854;SDS011;66343;44.588;33.450;2023-04-26T01:51:32;7.13;;;2.42;;
76854;SDS011;66343;44.588;33.450;2023-04-26T01:54:02;8.60;;;2.70;;
76854;SDS011;66343;44.588;33.450;2023-04-26T01:56:32;6.85;;;2.22;;
76854;SDS011;66343;44.588;33.450;2023-04-26T01:59:02;5.75;;;2.08;;
76854;SDS011;66343;44.588;33.450;2023-04-26T02:01:42;5.38;;;2.03;;
76854;SDS011;66343;44.588;33.450;2023-04-26T02:04:12;5.38;;;2.13;;
76854;SDS011;66343;44.588;33.450;2023-04-26T02:06:42;5.55;;;1.92;;
76854;SDS011;66343;44.588;33.450;2023-04-26T02:09:12;5.88;;;2.05;;
76854;SDS011;66343;44.588;33.450;2023-04-26T02:11:42;6.53;;;2.40;;
76854;SDS011;66343;44.588;33.450;2023-04-26T02:14:15;7.22;;;2.22;;
76854;SDS011;66343;44.588;33.450;2023-04-26T02:16:44;6.38;;;1.98;;
76854;SDS011;66343;44.588;33.450;2023-04-26T02:19:14;4.60;;;1.70;;
76854;SDS011;66343;44.588;33.450;2023-04-26T02:21:54;7.03;;;1.85;;
76854;SDS011;66343;44.588;33.450;2023-04-26T02:24:25;7.35;;;2.45;;
76854;SDS011;66343;44.588;33.450;2023-04-26T02:26:57;5.13;;;1.92;;
76854;SDS011;66343;44.588;33.450;2023-04-26T02:29:32;5.57;;;1.92;;
76854;SDS011;66343;44.588;33.450;2023-04-26T02:32:12;6.13;;;2.15;;
76854;SDS011;66343;44.588;33.450;2023-04-26T02:34:43;4.80;;;1.88;;
76854;SDS011;66343;44.588;33.450;2023-04-26T02:37:13;6.30;;;1.90;;
76854;SDS011;66343;44.588;33.450;2023-04-26T02:39:48;6.22;;;1.80;;
76854;SDS011;66343;44.588;33.450;2023-04-26T02:42:19;5.15;;;1.80;;
76854;SDS011;66343;44.588;33.450;2023-04-26T02:44:48;6.63;;;2.05;;
76854;SDS011;66343;44.588;33.450;2023-04-26T02:47:19;5.35;;;1.75;;
76854;SDS011;66343;44.588;33.450;2023-04-26T02:49:50;7.72;;;1.98;;
76854;SDS011;66343;44.588;33.450;2023-04-26T02:52:19;7.40;;;2.70;;
76854;SDS011;66343;44.588;33.450;2023-04-26T02:54:51;5.93;;;2.15;;
76854;SDS011;66343;44.588;33.450;2023-04-26T02:57:20;5.53;;;2.00;;
76854;SDS011;66343;44.588;33.450;2023-04-26T02:59:50;8.85;;;2.33;;
76854;SDS011;66343;44.588;33.450;2023-04-26T03:02:19;5.47;;;2.40;;
76854;SDS011;66343;44.588;33.450;2023-04-26T03:04:49;9.60;;;4.53;;
76854;SDS011;66343;44.588;33.450;2023-04-26T03:07:24;8.48;;;4.18;;
76854;SDS011;66343;44.588;33.450;2023-04-26T03:10:24;13.15;;;7.57;;
76854;SDS011;66343;44.588;33.450;2023-04-26T03:12:59;31.60;;;15.27;;
76854;SDS011;66343;44.588;33.450;2023-04-26T03:15:28;21.20;;;9.13;;
76854;SDS011;66343;44.588;33.450;2023-04-26T03:18:00;10.50;;;4.03;;
76854;SDS011;66343;44.588;33.450;2023-04-26T03:20:30;6.15;;;2.60;;
76854;SDS011;66343;44.588;33.450;2023-04-26T03:22:59;6.93;;;2.00;;
76854;SDS011;66343;44.588;33.450;2023-04-26T03:25:31;6.43;;;2.05;;
76854;SDS011;66343;44.588;33.450;2023-04-26T03:28:04;6.45;;;2.13;;
76854;SDS011;66343;44.588;33.450;2023-04-26T03:30:34;8.02;;;2.00;;
76854;SDS011;66343;44.588;33.450;2023-04-26T03:33:08;5.25;;;1.95;;
76854;SDS011;66343;44.588;33.450;2023-04-26T03:35:37;6.38;;;2.15;;
76854;SDS011;66343;44.588;33.450;2023-04-26T03:38:08;6.38;;;2.03;;
76854;SDS011;66343;44.588;33.450;2023-04-26T03:40:38;9.05;;;2.08;;
76854;SDS011;66343;44.588;33.450;2023-04-26T03:43:08;6.82;;;2.22;;
76854;SDS011;66343;44.588;33.450;2023-04-26T03:45:38;7.60;;;2.10;;
76854;SDS011;66343;44.588;33.450;2023-04-26T03:48:08;6.25;;;1.95;;
76854;SDS011;66343;44.588;33.450;2023-04-26T03:50:37;7.15;;;2.40;;
76854;SDS011;66343;44.588;33.450;2023-04-26T03:53:10;7.95;;;2.00;;
76854;SDS011;66343;44.588;33.450;2023-04-26T03:55:41;6.00;;;1.73;;
76854;SDS011;66343;44.588;33.450;2023-04-26T04:00:44;5.72;;;1.83;;
76854;SDS011;66343;44.588;33.450;2023-04-26T04:03:16;6.00;;;2.05;;
76854;SDS011;66343;44.588;33.450;2023-04-26T04:05:51;6.95;;;1.83;;
76854;SDS011;66343;44.588;33.450;2023-04-26T04:08:20;8.52;;;1.80;;
76854;SDS011;66343;44.588;33.450;2023-04-26T04:10:51;7.90;;;2.30;;
76854;SDS011;66343;44.588;33.450;2023-04-26T04:13:25;7.18;;;1.90;;
76854;SDS011;66343;44.588;33.450;2023-04-26T04:16:00;6.53;;;2.10;;
76854;SDS011;66343;44.588;33.450;2023-04-26T04:18:32;6.32;;;1.80;;
76854;SDS011;66343;44.588;33.450;2023-04-26T04:21:07;7.28;;;2.00;;
76854;SDS011;66343;44.588;33.450;2023-04-26T04:23:37;6.18;;;2.17;;
76854;SDS011;66343;44.588;33.450;2023-04-26T04:26:18;5.90;;;1.73;;
76854;SDS011;66343;44.588;33.450;2023-04-26T04:28:50;8.27;;;1.92;;
76854;SDS011;66343;44.588;33.450;2023-04-26T04:31:21;7.38;;;1.92;;
76854;SDS011;66343;44.588;33.450;2023-04-26T04:33:53;10.90;;;2.20;;
76854;SDS011;66343;44.588;33.450;2023-04-26T04:36:23;10.07;;;2.35;;
76854;SDS011;66343;44.588;33.450;2023-04-26T04:38:54;5.18;;;1.92;;
76854;SDS011;66343;44.588;33.450;2023-04-26T04:41:24;7.20;;;1.90;;
76854;SDS011;66343;44.588;33.450;2023-04-26T04:43:56;5.32;;;1.38;;
76854;SDS011;66343;44.588;33.450;2023-04-26T04:46:25;7.60;;;1.80;;
76854;SDS011;66343;44.588;33.450;2023-04-26T04:48:57;5.40;;;1.88;;
76854;SDS011;66343;44.588;33.450;2023-04-26T04:51:30;8.75;;;2.10;;
76854;SDS011;66343;44.588;33.450;2023-04-26T04:54:13;8.73;;;2.03;;
76854;SDS011;66343;44.588;33.450;2023-04-26T04:56:48;6.50;;;1.65;;
76854;SDS011;66343;44.588;33.450;2023-04-26T04:59:19;8.80;;;2.03;;
76854;SDS011;66343;44.588;33.450;2023-04-26T05:01:51;4.82;;;1.50;;
76854;SDS011;66343;44.588;33.450;2023-04-26T05:04:21;6.13;;;1.63;;
76854;SDS011;66343;44.588;33.450;2023-04-26T05:06:53;7.75;;;1.73;;
76854;SDS011;66343;44.588;33.450;2023-04-26T05:09:23;8.43;;;1.85;;
76854;SDS011;66343;44.588;33.450;2023-04-26T05:11:56;7.65;;;1.92;;
76854;SDS011;66343;44.588;33.450;2023-04-26T05:14:25;6.90;;;1.85;;
76854;SDS011;66343;44.588;33.450;2023-04-26T05:17:03;9.25;;;1.85;;
76854;SDS011;66343;44.588;33.450;2023-04-26T05:19:35;8.73;;;2.25;;
76854;SDS011;66343;44.588;33.450;2023-04-26T05:22:07;7.28;;;1.60;;
76854;SDS011;66343;44.588;33.450;2023-04-26T05:24:46;5.30;;;1.50;;
76854;SDS011;66343;44.588;33.450;2023-04-26T05:27:21;7.07;;;1.90;;
76854;SDS011;66343;44.588;33.450;2023-04-26T05:30:08;7.88;;;1.80;;
76854;SDS011;66343;44.588;33.450;2023-04-26T05:32:55;7.30;;;1.80;;
76854;SDS011;66343;44.588;33.450;2023-04-26T05:35:47;6.68;;;1.75;;
76854;SDS011;66343;44.588;33.450;2023-04-26T05:38:25;7.40;;;1.73;;
76854;SDS011;66343;44.588;33.450;2023-04-26T05:40:54;7.15;;;1.60;;
76854;SDS011;66343;44.588;33.450;2023-04-26T05:43:26;6.07;;;1.73;;
76854;SDS011;66343;44.588;33.450;2023-04-26T05:45:56;5.55;;;1.50;;
76854;SDS011;66343;44.588;33.450;2023-04-26T05:48:28;5.45;;;1.80;;
76854;SDS011;66343;44.588;33.450;2023-04-26T05:51:01;6.65;;;1.77;;
76854;SDS011;66343;44.588;33.450;2023-04-26T05:53:32;4.63;;;1.63;;
76854;SDS011;66343;44.588;33.450;2023-04-26T05:56:06;6.63;;;1.75;;
76854;SDS011;66343;44.588;33.450;2023-04-26T05:58:35;5.97;;;1.90;;
76854;SDS011;66343;44.588;33.450;2023-04-26T06:01:05;5.00;;;2.00;;
76854;SDS011;66343;44.588;33.450;2023-04-26T06:03:34;6.57;;;1.83;;
76854;SDS011;66343;44.588;33.450;2023-04-26T06:06:05;9.25;;;1.95;;
76854;SDS011;66343;44.588;33.450;2023-04-26T06:08:38;5.45;;;1.75;;
76854;SDS011;66343;44.588;33.450;2023-04-26T06:11:09;7.10;;;2.00;;
76854;SDS011;66343;44.588;33.450;2023-04-26T06:13:39;7.38;;;1.88;;
76854;SDS011;66343;44.588;33.450;2023-04-26T06:16:12;6.65;;;1.88;;
76854;SDS011;66343;44.588;33.450;2023-04-26T06:21:13;4.85;;;1.63;;
76854;SDS011;66343;44.588;33.450;2023-04-26T06:23:43;4.72;;;1.50;;
76854;SDS011;66343;44.588;33.450;2023-04-26T06:26:17;6.72;;;2.03;;
76854;SDS011;66343;44.588;33.450;2023-04-26T06:28:47;9.60;;;2.30;;
76854;SDS011;66343;44.588;33.450;2023-04-26T06:31:19;8.05;;;2.60;;
76854;SDS011;66343;44.588;33.450;2023-04-26T06:33:50;10.05;;;2.42;;
76854;SDS011;66343;44.588;33.450;2023-04-26T06:36:23;9.55;;;2.33;;
76854;SDS011;66343;44.588;33.450;2023-04-26T06:38:55;7.82;;;1.92;;
76854;SDS011;66343;44.588;33.450;2023-04-26T06:41:27;6.28;;;1.98;;
76854;SDS011;66343;44.588;33.450;2023-04-26T06:43:56;7.47;;;2.00;;
76854;SDS011;66343;44.588;33.450;2023-04-26T06:46:30;5.32;;;1.90;;
76854;SDS011;66343;44.588;33.450;2023-04-26T06:49:01;5.07;;;1.70;;
76854;SDS011;66343;44.588;33.450;2023-04-26T06:51:32;6.05;;;1.73;;
76854;SDS011;66343;44.588;33.450;2023-04-26T06:54:07;6.82;;;1.58;;
76854;SDS011;66343;44.588;33.450;2023-04-26T06:56:42;8.77;;;2.28;;
76854;SDS011;66343;44.588;33.450;2023-04-26T06:59:11;5.93;;;1.88;;
76854;SDS011;66343;44.588;33.450;2023-04-26T07:01:40;6.47;;;2.20;;
76854;SDS011;66343;44.588;33.450;2023-04-26T07:04:10;6.93;;;2.00;;
76854;SDS011;66343;44.588;33.450;2023-04-26T07:06:39;6.75;;;1.95;;
76854;SDS011;66343;44.588;33.450;2023-04-26T07:09:10;8.55;;;2.20;;
76854;SDS011;66343;44.588;33.450;2023-04-26T07:11:44;9.88;;;2.42;;
76854;SDS011;66343;44.588;33.450;2023-04-26T07:14:15;13.82;;;2.53;;
76854;SDS011;66343;44.588;33.450;2023-04-26T07:16:48;8.00;;;2.10;;
76854;SDS011;66343;44.588;33.450;2023-04-26T07:19:17;6.32;;;1.92;;
76854;SDS011;66343;44.588;33.450;2023-04-26T07:21:47;11.10;;;2.67;;
76854;SDS011;66343;44.588;33.450;2023-04-26T07:24:16;10.50;;;2.90;;
76854;SDS011;66343;44.588;33.450;2023-04-26T07:26:47;8.38;;;2.60;;
76854;SDS011;66343;44.588;33.450;2023-04-26T07:29:17;10.80;;;2.95;;
76854;SDS011;66343;44.588;33.450;2023-04-26T07:31:46;8.25;;;3.20;;
76854;SDS011;66343;44.588;33.450;2023-04-26T07:34:17;10.90;;;2.83;;
76854;SDS011;66343;44.588;33.450;2023-04-26T07:36:49;12.30;;;3.45;;
76854;SDS011;66343;44.588;33.450;2023-04-26T07:39:21;12.93;;;2.97;;
76854;SDS011;66343;44.588;33.450;2023-04-26T07:41:50;11.48;;;2.67;;
76854;SDS011;66343;44.588;33.450;2023-04-26T07:44:22;11.45;;;3.05;;
76854;SDS011;66343;44.588;33.450;2023-04-26T07:46:54;9.50;;;3.00;;
76854;SDS011;66343;44.588;33.450;2023-04-26T07:49:24;12.57;;;2.90;;
76854;SDS011;66343;44.588;33.450;2023-04-26T07:51:56;12.10;;;3.10;;
76854;SDS011;66343;44.588;33.450;2023-04-26T07:54:29;14.32;;;3.10;;
76854;SDS011;66343;44.588;33.450;2023-04-26T07:56:59;10.77;;;3.20;;
76854;SDS011;66343;44.588;33.450;2023-04-26T07:59:29;14.77;;;3.15;;
76854;SDS011;66343;44.588;33.450;2023-04-26T08:02:01;9.88;;;2.85;;
76854;SDS011;66343;44.588;33.450;2023-04-26T08:04:34;10.57;;;2.45;;
76854;SDS011;66343;44.588;33.450;2023-04-26T08:07:06;10.38;;;2.83;;
76854;SDS011;66343;44.588;33.450;2023-04-26T08:09:36;12.07;;;3.47;;
76854;SDS011;66343;44.588;33.450;2023-04-26T08:12:05;13.43;;;3.10;;
76854;SDS011;66343;44.588;33.450;2023-04-26T08:14:36;9.00;;;2.20;;
76854;SDS011;66343;44.588;33.450;2023-04-26T08:17:06;7.22;;;2.35;;
76854;SDS011;66343;44.588;33.450;2023-04-26T08:19:40;8.77;;;2.33;;
76854;SDS011;66343;44.588;33.450;2023-04-26T08:22:10;8.70;;;2.45;;
76854;SDS011;66343;44.588;33.450;2023-04-26T08:24:39;11.68;;;2.70;;
76854;SDS011;66343;44.588;33.450;2023-04-26T08:27:09;7.50;;;2.28;;
76854;SDS011;66343;44.588;33.450;2023-04-26T08:29:41;9.48;;;2.28;;
76854;SDS011;66343;44.588;33.450;2023-04-26T08:32:11;11.93;;;2.63;;
76854;SDS011;66343;44.588;33.450;2023-04-26T08:34:41;8.43;;;2.20;;
76854;SDS011;66343;44.588;33.450;2023-04-26T08:37:11;9.85;;;2.10;;
76854;SDS011;66343;44.588;33.450;2023-04-26T08:39:41;10.25;;;2.55;;
76854;SDS011;66343;44.588;33.450;2023-04-26T08:42:12;11.90;;;2.38;;
76854;SDS011;66343;44.588;33.450;2023-04-26T08:44:44;10.45;;;2.75;;
76854;SDS011;66343;44.588;33.450;2023-04-26T08:47:18;10.07;;;2.65;;
76854;SDS011;66343;44.588;33.450;2023-04-26T08:49:53;7.25;;;2.50;;
76854;SDS011;66343;44.588;33.450;2023-04-26T08:52:31;6.40;;;2.10;;
76854;SDS011;66343;44.588;33.450;2023-04-26T08:55:01;8.93;;;2.42;;
76854;SDS011;66343;44.588;33.450;2023-04-26T08:57:36;11.02;;;2.45;;
76854;SDS011;66343;44.588;33.450;2023-04-26T09:00:09;9.13;;;2.67;;
76854;SDS011;66343;44.588;33.450;2023-04-26T09:02:47;11.77;;;3.25;;
76854;SDS011;66343;44.588;33.450;2023-04-26T09:05:21;9.40;;;3.10;;
76854;SDS011;66343;44.588;33.450;2023-04-26T09:07:56;8.02;;;2.42;;
76854;SDS011;66343;44.588;33.450;2023-04-26T09:10:33;6.85;;;2.50;;
76854;SDS011;66343;44.588;33.450;2023-04-26T09:13:08;8.38;;;2.80;;
76854;SDS011;66343;44.588;33.450;2023-04-26T09:15:39;7.15;;;2.25;;
76854;SDS011;66343;44.588;33.450;2023-04-26T09:18:21;9.32;;;2.40;;
76854;SDS011;66343;44.588;33.450;2023-04-26T09:21:01;9.05;;;2.80;;
76854;SDS011;66343;44.588;33.450;2023-04-26T09:23:37;11.88;;;2.50;;
76854;SDS011;66343;44.588;33.450;2023-04-26T09:26:31;9.65;;;2.35;;
76854;SDS011;66343;44.588;33.450;2023-04-26T09:29:15;8.50;;;2.45;;
76854;SDS011;66343;44.588;33.450;2023-04-26T09:31:46;10.30;;;2.47;;
76854;SDS011;66343;44.588;33.450;2023-04-26T09:34:19;8.73;;;2.13;;
76854;SDS011;66343;44.588;33.450;2023-04-26T09:36:53;8.88;;;2.30;;
76854;SDS011;66343;44.588;33.450;2023-04-26T09:42:05;8.32;;;2.25;;
76854;SDS011;66343;44.588;33.450;2023-04-26T09:47:07;9.65;;;2.28;;
76854;SDS011;66343;44.588;33.450;2023-04-26T09:52:16;7.85;;;2.05;;
76854;SDS011;66343;44.588;33.450;2023-04-26T09:54:55;7.72;;;1.90;;
76854;SDS011;66343;44.588;33.450;2023-04-26T09:57:24;10.05;;;2.17;;
76854;SDS011;66343;44.588;33.450;2023-04-26T09:59:57;7.43;;;2.20;;
76854;SDS011;66343;44.588;33.450;2023-04-26T10:02:31;7.75;;;2.00;;
76854;SDS011;66343;44.588;33.450;2023-04-26T10:05:03;13.02;;;2.35;;
76854;SDS011;66343;44.588;33.450;2023-04-26T10:07:34;10.85;;;2.13;;
76854;SDS011;66343;44.588;33.450;2023-04-26T10:10:04;9.38;;;2.22;;
76854;SDS011;66343;44.588;33.450;2023-04-26T10:12:37;11.25;;;2.30;;
76854;SDS011;66343;44.588;33.450;2023-04-26T10:15:12;8.73;;;2.10;;
76854;SDS011;66343;44.588;33.450;2023-04-26T10:17:50;8.38;;;2.38;;
76854;SDS011;66343;44.588;33.450;2023-04-26T10:20:21;11.43;;;3.05;;
76854;SDS011;66343;44.588;33.450;2023-04-26T10:22:58;8.60;;;2.72;;
76854;SDS011;66343;44.588;33.450;2023-04-26T10:25:38;9.40;;;2.65;;
76854;SDS011;66343;44.588;33.450;2023-04-26T10:28:09;7.10;;;2.33;;
76854;SDS011;66343;44.588;33.450;2023-04-26T10:30:54;9.43;;;2.40;;
76854;SDS011;66343;44.588;33.450;2023-04-26T10:33:32;11.48;;;2.75;;
76854;SDS011;66343;44.588;33.450;2023-04-26T10:36:05;8.95;;;2.40;;
76854;SDS011;66343;44.588;33.450;2023-04-26T10:38:40;9.32;;;2.47;;
76854;SDS011;66343;44.588;33.450;2023-04-26T10:41:32;11.02;;;3.10;;
76854;SDS011;66343;44.588;33.450;2023-04-26T10:47:04;10.93;;;2.75;;
76854;SDS011;66343;44.588;33.450;2023-04-26T10:50:00;8.02;;;2.05;;
76854;SDS011;66343;44.588;33.450;2023-04-26T10:52:38;10.43;;;2.30;;
76854;SDS011;66343;44.588;33.450;2023-04-26T10:55:41;10.48;;;2.20;;
76854;SDS011;66343;44.588;33.450;2023-04-26T11:03:42;8.35;;;2.70;;
76854;SDS011;66343;44.588;33.450;2023-04-26T11:06:51;8.18;;;2.30;;
76854;SDS011;66343;44.588;33.450;2023-04-26T11:09:32;9.48;;;2.38;;
76854;SDS011;66343;44.588;33.450;2023-04-26T11:12:06;13.05;;;2.78;;
76854;SDS011;66343;44.588;33.450;2023-04-26T11:14:41;9.00;;;2.75;;
76854;SDS011;66343;44.588;33.450;2023-04-26T11:17:12;11.48;;;2.90;;
76854;SDS011;66343;44.588;33.450;2023-04-26T11:19:45;10.75;;;3.35;;
76854;SDS011;66343;44.588;33.450;2023-04-26T11:22:38;12.50;;;2.95;;
76854;SDS011;66343;44.588;33.450;2023-04-26T11:25:13;12.00;;;3.72;;
76854;SDS011;66343;44.588;33.450;2023-04-26T11:27:45;10.35;;;3.70;;
76854;SDS011;66343;44.588;33.450;2023-04-26T11:30:17;10.80;;;3.50;;
76854;SDS011;66343;44.588;33.450;2023-04-26T11:32:51;11.85;;;4.68;;
76854;SDS011;66343;44.588;33.450;2023-04-26T11:35:23;10.18;;;3.10;;
76854;SDS011;66343;44.588;33.450;2023-04-26T11:37:58;9.27;;;2.75;;
76854;SDS011;66343;44.588;33.450;2023-04-26T11:40:31;11.02;;;3.00;;
76854;SDS011;66343;44.588;33.450;2023-04-26T11:43:04;10.70;;;3.30;;
76854;SDS011;66343;44.588;33.450;2023-04-26T11:45:37;9.10;;;2.47;;
76854;SDS011;66343;44.588;33.450;2023-04-26T11:48:09;10.65;;;2.78;;
76854;SDS011;66343;44.588;33.450;2023-04-26T11:50:43;13.55;;;3.55;;
76854;SDS011;66343;44.588;33.450;2023-04-26T11:53:15;15.98;;;3.00;;
76854;SDS011;66343;44.588;33.450;2023-04-26T11:55:45;8.98;;;3.00;;
76854;SDS011;66343;44.588;33.450;2023-04-26T11:58:15;10.30;;;3.47;;
76854;SDS011;66343;44.588;33.450;2023-04-26T12:01:00;7.97;;;3.00;;
76854;SDS011;66343;44.588;33.450;2023-04-26T12:03:35;9.02;;;2.80;;
76854;SDS011;66343;44.588;33.450;2023-04-26T12:06:08;12.82;;;3.40;;
76854;SDS011;66343;44.588;33.450;2023-04-26T12:08:47;10.70;;;3.00;;
76854;SDS011;66343;44.588;33.450;2023-04-26T12:11:21;11.43;;;3.05;;
76854;SDS011;66343;44.588;33.450;2023-04-26T12:13:53;11.05;;;3.10;;
76854;SDS011;66343;44.588;33.450;2023-04-26T12:16:30;10.60;;;2.85;;
76854;SDS011;66343;44.588;33.450;2023-04-26T12:19:03;9.98;;;3.33;;
76854;SDS011;66343;44.588;33.450;2023-04-26T12:21:40;14.05;;;3.83;;
76854;SDS011;66343;44.588;33.450;2023-04-26T12:24:24;8.30;;;3.03;;
76854;SDS011;66343;44.588;33.450;2023-04-26T12:27:06;11.48;;;3.22;;
76854;SDS011;66343;44.588;33.450;2023-04-26T12:29:36;9.43;;;3.03;;
76854;SDS011;66343;44.588;33.450;2023-04-26T12:32:09;7.28;;;2.40;;
76854;SDS011;66343;44.588;33.450;2023-04-26T12:34:45;8.43;;;3.50;;
76854;SDS011;66343;44.588;33.450;2023-04-26T12:37:17;9.82;;;3.13;;
76854;SDS011;66343;44.588;33.450;2023-04-26T12:39:47;8.02;;;2.80;;
76854;SDS011;66343;44.588;33.450;2023-04-26T12:42:16;9.43;;;3.22;;
76854;SDS011;66343;44.588;33.450;2023-04-26T12:44:48;11.50;;;3.20;;
76854;SDS011;66343;44.588;33.450;2023-04-26T12:47:18;11.07;;;3.45;;
76854;SDS011;66343;44.588;33.450;2023-04-26T12:49:48;9.48;;;2.85;;
76854;SDS011;66343;44.588;33.450;2023-04-26T12:52:17;9.55;;;2.70;;
76854;SDS011;66343;44.588;33.450;2023-04-26T12:54:49;9.95;;;2.75;;
76854;SDS011;66343;44.588;33.450;2023-04-26T12:57:19;10.85;;;3.15;;
76854;SDS011;66343;44.588;33.450;2023-04-26T12:59:49;14.00;;;3.55;;
76854;SDS011;66343;44.588;33.450;2023-04-26T13:02:18;11.35;;;3.80;;
76854;SDS011;66343;44.588;33.450;2023-04-26T13:04:51;8.05;;;3.17;;
76854;SDS011;66343;44.588;33.450;2023-04-26T13:07:20;9.48;;;3.50;;
76854;SDS011;66343;44.588;33.450;2023-04-26T13:09:58;9.63;;;3.38;;
76854;SDS011;66343;44.588;33.450;2023-04-26T13:12:33;9.25;;;2.95;;
76854;SDS011;66343;44.588;33.450;2023-04-26T13:17:38;8.77;;;3.47;;
76854;SDS011;66343;44.588;33.450;2023-04-26T13:20:13;14.70;;;6.90;;
76854;SDS011;66343;44.588;33.450;2023-04-26T13:22:42;9.50;;;3.47;;
76854;SDS011;66343;44.588;33.450;2023-04-26T13:25:18;9.65;;;3.20;;
76854;SDS011;66343;44.588;33.450;2023-04-26T13:27:47;7.57;;;3.13;;
76854;SDS011;66343;44.588;33.450;2023-04-26T13:30:23;10.65;;;3.67;;
76854;SDS011;66343;44.588;33.450;2023-04-26T13:32:53;9.68;;;3.42;;
76854;SDS011;66343;44.588;33.450;2023-04-26T13:35:28;9.18;;;3.33;;
76854;SDS011;66343;44.588;33.450;2023-04-26T13:37:59;11.00;;;3.78;;
76854;SDS011;66343;44.588;33.450;2023-04-26T13:40:31;12.43;;;2.97;;
76854;SDS011;66343;44.588;33.450;2023-04-26T13:43:03;8.88;;;3.58;;
76854;SDS011;66343;44.588;33.450;2023-04-26T13:45:33;8.02;;;3.13;;
76854;SDS011;66343;44.588;33.450;2023-04-26T13:48:04;8.20;;;2.85;;
76854;SDS011;66343;44.588;33.450;2023-04-26T13:50:34;12.25;;;3.67;;
76854;SDS011;66343;44.588;33.450;2023-04-26T13:53:10;10.63;;;3.13;;
76854;SDS011;66343;44.588;33.450;2023-04-26T13:55:42;12.10;;;3.55;;
76854;SDS011;66343;44.588;33.450;2023-04-26T13:58:14;8.18;;;3.33;;
76854;SDS011;66343;44.588;33.450;2023-04-26T14:00:49;9.15;;;3.70;;
76854;SDS011;66343;44.588;33.450;2023-04-26T14:03:23;9.05;;;3.63;;
76854;SDS011;66343;44.588;33.450;2023-04-26T14:05:57;8.57;;;3.45;;
76854;SDS011;66343;44.588;33.450;2023-04-26T14:08:29;10.40;;;3.60;;
76854;SDS011;66343;44.588;33.450;2023-04-26T14:11:01;7.88;;;3.38;;
76854;SDS011;66343;44.588;33.450;2023-04-26T14:13:36;9.27;;;3.20;;
76854;SDS011;66343;44.588;33.450;2023-04-26T14:16:09;9.95;;;3.47;;
76854;SDS011;66343;44.588;33.450;2023-04-26T14:18:43;14.48;;;3.95;;
76854;SDS011;66343;44.588;33.450;2023-04-26T14:21:13;11.25;;;5.68;;
76854;SDS011;66343;44.588;33.450;2023-04-26T14:23:43;13.38;;;7.20;;
76854;SDS011;66343;44.588;33.450;2023-04-26T14:26:16;18.73;;;6.75;;
76854;SDS011;66343;44.588;33.450;2023-04-26T14:28:49;12.60;;;4.30;;
76854;SDS011;66343;44.588;33.450;2023-04-26T14:31:19;9.00;;;4.15;;
76854;SDS011;66343;44.588;33.450;2023-04-26T14:33:50;10.60;;;4.03;;
76854;SDS011;66343;44.588;33.450;2023-04-26T14:36:25;10.43;;;3.80;;
76854;SDS011;66343;44.588;33.450;2023-04-26T14:39:00;11.07;;;4.80;;
76854;SDS011;66343;44.588;33.450;2023-04-26T14:41:33;19.33;;;7.28;;
76854;SDS011;66343;44.588;33.450;2023-04-26T14:44:06;17.60;;;7.43;;
76854;SDS011;66343;44.588;33.450;2023-04-26T14:46:36;15.93;;;7.82;;
76854;SDS011;66343;44.588;33.450;2023-04-26T14:49:09;21.05;;;8.77;;
76854;SDS011;66343;44.588;33.450;2023-04-26T14:51:39;20.15;;;7.55;;
76854;SDS011;66343;44.588;33.450;2023-04-26T14:54:17;17.55;;;6.38;;
76854;SDS011;66343;44.588;33.450;2023-04-26T14:56:47;15.18;;;6.40;;
76854;SDS011;66343;44.588;33.450;2023-04-26T14:59:17;14.48;;;5.75;;
76854;SDS011;66343;44.588;33.450;2023-04-26T15:01:47;12.40;;;5.47;;
76854;SDS011;66343;44.588;33.450;2023-04-26T15:04:17;10.10;;;5.20;;
76854;SDS011;66343;44.588;33.450;2023-04-26T15:06:54;9.40;;;4.05;;
76854;SDS011;66343;44.588;33.450;2023-04-26T15:11:56;9.63;;;4.13;;
76854;SDS011;66343;44.588;33.450;2023-04-26T15:14:26;8.85;;;4.60;;
76854;SDS011;66343;44.588;33.450;2023-04-26T15:16:56;9.13;;;4.35;;
76854;SDS011;66343;44.588;33.450;2023-04-26T15:19:28;9.23;;;4.32;;
76854;SDS011;66343;44.588;33.450;2023-04-26T15:22:01;10.30;;;4.88;;
76854;SDS011;66343;44.588;33.450;2023-04-26T15:24:35;10.65;;;4.90;;
76854;SDS011;66343;44.588;33.450;2023-04-26T15:27:05;9.88;;;5.07;;
76854;SDS011;66343;44.588;33.450;2023-04-26T15:29:39;12.13;;;4.32;;
76854;SDS011;66343;44.588;33.450;2023-04-26T15:32:09;8.93;;;4.07;;
76854;SDS011;66343;44.588;33.450;2023-04-26T15:34:40;8.57;;;4.05;;
76854;SDS011;66343;44.588;33.450;2023-04-26T15:37:17;9.15;;;3.97;;
76854;SDS011;66343;44.588;33.450;2023-04-26T15:39:49;11.60;;;4.18;;
76854;SDS011;66343;44.588;33.450;2023-04-26T15:42:22;10.25;;;3.85;;